Time;durP1;ratioP1;P1;durP2;ratioP2;P2;SDS_P1;SDS_P2;PMS_P1;PMS_P2;Temp;Humidity;BMP_temperature;BMP_pressure;BME280_temperature;BME280_humidity;BME280_pressure;Samples;Min_cycle;Max_cycle;Signal;HPM_P1;HPM_P2
2022/01/20 00:00:15;;;;;;;22.15;2.08;;;;;;;2.28;82.68;101842.25;2078978;28;45505;-72
2022/01/20 00:02:22;;;;;;;27.50;2.40;;;;;;;2.26;82.96;101847.50;2078546;28;43317;-73
2022/01/20 00:03:32;;;;;;;22.10;1.98;;;;;;;2.26;83.14;101852.78;2078540;28;45469;-73
2022/01/20 00:04:43;;;;;;;20.67;2.05;;;;;;;2.33;82.94;101858.22;2079530;28;42284;-73
2022/01/20 00:07:27;;;;;;;;;;;;;;;2.34;83.99;101867.94;2078974;28;45151;-73
2022/01/20 00:08:50;;;;;;;16.20;1.48;;;;;;;2.28;84.84;101856.34;2080343;28;35768;-73
2022/01/20 00:23:40;;;;;;;16.65;1.45;;;;;;;1.82;89.10;101849.84;2080748;28;45525;-73
2022/01/20 00:26:12;;;;;;;16.92;1.50;;;;;;;1.81;89.71;101852.44;2080474;28;43914;-73
2022/01/20 00:27:16;;;;;;;16.23;1.42;;;;;;;1.80;89.20;101862.13;2080366;28;45562;-75
2022/01/20 00:28:25;;;;;;;19.75;1.77;;;;;;;1.80;89.72;101859.47;2081296;28;20034;-74
2022/01/20 00:29:30;;;;;;;17.35;1.33;;;;;;;1.80;89.35;101854.19;2080289;28;45522;-74
2022/01/20 00:32:00;;;;;;;18.40;1.83;;;;;;;1.80;89.02;101841.00;2089232;28;20129;-76
2022/01/20 00:34:14;;;;;;;17.58;1.60;;;;;;;1.79;89.31;101843.59;2080820;28;46156;-75
2022/01/20 00:38:06;;;;;;;22.77;2.22;;;;;;;1.72;89.96;101829.31;2081182;28;27885;-73
2022/01/20 00:39:08;;;;;;;15.75;1.33;;;;;;;1.70;90.34;101825.72;2079464;28;44978;-75
2022/01/20 00:40:10;;;;;;;16.02;1.52;;;;;;;1.67;89.91;101834.47;2079895;28;45940;-75
2022/01/20 00:41:15;;;;;;;16.27;1.42;;;;;;;1.66;90.27;101827.41;2080604;28;38603;-76
2022/01/20 00:42:17;;;;;;;22.88;2.20;;;;;;;1.66;90.91;101829.16;2087882;28;45253;-75
2022/01/20 00:43:19;;;;;;;17.98;1.55;;;;;;;1.63;90.58;101829.06;2079286;28;42436;-75
2022/01/20 00:44:24;;;;;;;16.13;1.48;;;;;;;1.62;90.47;101837.84;2071611;28;45117;-76
2022/01/20 00:45:26;;;;;;;16.67;1.40;;;;;;;1.59;91.28;101827.19;2079871;28;44765;-75
2022/01/20 00:46:28;;;;;;;15.63;1.55;;;;;;;1.60;90.92;101823.69;2080326;28;44243;-76
2022/01/20 00:47:30;;;;;;;24.77;2.03;;;;;;;1.63;91.24;101826.41;2080739;28;45970;-76
2022/01/20 00:48:31;;;;;;;21.35;1.70;;;;;;;1.62;91.48;101820.25;2080523;28;43822;-75
2022/01/20 00:49:35;;;;;;;20.25;2.10;;;;;;;1.65;90.79;101814.16;2081225;28;20045;-75
2022/01/20 00:50:38;;;;;;;21.83;2.42;;;;;;;1.65;90.80;101825.63;2079590;28;43926;-76
2022/01/20 00:51:39;;;;;;;19.77;1.85;;;;;;;1.66;90.98;101821.22;2079606;28;45391;-75
2022/01/20 00:52:42;;;;;;;19.50;1.40;;;;;;;1.70;90.73;101826.63;2081112;28;20054;-75
2022/01/20 00:53:45;;;;;;;25.80;1.67;;;;;;;1.74;90.96;101827.59;2080766;28;20994;-75
2022/01/20 00:54:48;;;;;;;22.90;2.45;;;;;;;1.76;90.75;101831.22;2079927;28;44077;-75
2022/01/20 00:55:49;;;;;;;18.60;2.00;;;;;;;1.80;90.12;101818.97;2080411;28;45289;-76
2022/01/20 00:56:51;;;;;;;15.70;1.83;;;;;;;1.85;90.12;101823.53;2080019;28;35453;-76
2022/01/20 00:57:53;;;;;;;25.83;2.88;;;;;;;1.88;89.84;101822.69;2071276;28;43531;-76
2022/01/20 00:58:55;;;;;;;18.85;1.90;;;;;;;1.95;89.72;101823.78;2079961;28;45962;-76
2022/01/20 00:59:56;;;;;;;23.83;1.85;;;;;;;1.95;90.08;101814.09;2087930;28;43823;-75
2022/01/20 01:01:00;;;;;;;17.23;1.85;;;;;;;1.99;89.45;101823.91;2080582;28;20878;-76
2022/01/20 01:02:07;;;;;;;15.57;1.58;;;;;;;2.02;90.26;101823.97;2071203;28;43547;-76
2022/01/20 01:03:09;;;;;;;26.88;1.70;;;;;;;2.06;90.12;101828.50;2073368;28;20051;-75
2022/01/20 01:04:12;;;;;;;19.35;2.30;;;;;;;2.07;89.76;101818.81;2079752;28;44601;-76
2022/01/20 01:05:16;;;;;;;18.83;1.77;;;;;;;2.10;90.08;101819.78;2081107;28;44238;-76
2022/01/20 01:08:51;;;;;;;23.15;2.15;;;;;;;2.27;89.94;101825.50;2067263;28;45138;-76
2022/01/20 01:09:53;;;;;;;21.02;1.85;;;;;;;2.32;89.81;101824.75;2080333;28;44402;-75
2022/01/20 01:10:54;;;;;;;23.00;2.13;;;;;;;2.33;90.07;101831.78;2080585;28;44113;-76
2022/01/20 01:12:02;;;;;;;21.17;1.83;;;;;;;2.34;90.19;101834.47;2081214;28;20038;-75
2022/01/20 01:13:09;;;;;;;19.48;1.50;;;;;;;2.38;90.31;101831.03;2079965;28;43322;-76
2022/01/20 01:14:11;;;;;;;18.60;1.92;;;;;;;2.38;90.30;101838.09;2079406;28;45729;-75
2022/01/20 01:15:21;;;;;;;17.65;1.70;;;;;;;2.37;91.02;101831.00;2079579;28;44197;-76
2022/01/20 01:16:35;;;;;;;18.55;1.63;;;;;;;2.38;91.09;101832.81;2079987;28;44416;-76
2022/01/20 01:20:25;;;;;;;22.27;1.63;;;;;;;2.43;91.15;101842.63;2080226;28;20181;-76
2022/01/20 01:21:42;;;;;;;16.77;1.40;;;;;;;2.43;90.92;101845.28;2071561;28;44533;-75
2022/01/20 01:22:44;;;;;;;14.93;1.10;;;;;;;2.46;91.33;101850.66;2074298;28;21203;-76
2022/01/20 01:23:46;;;;;;;14.60;1.02;;;;;;;2.48;90.58;101845.41;2080551;28;20924;-76
2022/01/20 01:24:52;;;;;;;17.60;1.55;;;;;;;2.46;90.98;101857.69;2088665;28;20049;-77
2022/01/20 01:25:57;;;;;;;13.75;1.08;;;;;;;2.47;91.08;101847.13;2080790;28;20232;-76
2022/01/20 01:27:01;;;;;;;13.95;1.05;;;;;;;2.48;91.04;101850.69;2072733;28;44243;-77
2022/01/20 01:28:03;;;;;;;13.57;1.17;;;;;;;2.49;91.50;101852.47;2078407;28;43568;-77
2022/01/20 01:29:20;;;;;;;13.07;1.40;;;;;;;2.51;91.41;101852.50;2080097;28;36718;-77
2022/01/20 01:33:52;;;;;;;9.38;0.77;;;;;;;2.63;90.21;101842.22;2081616;28;24612;-77
2022/01/20 01:34:54;;;;;;;11.25;1.13;;;;;;;2.61;90.25;101843.94;2086810;28;20041;-76
2022/01/20 01:35:59;;;;;;;8.95;0.88;;;;;;;2.67;90.39;101846.72;2080365;28;20038;-77
2022/01/20 01:39:07;;;;;;;15.30;0.98;;;;;;;2.67;90.03;101839.72;2072449;28;27000;-76
2022/01/20 01:40:12;;;;;;;18.75;1.00;;;;;;;2.69;90.17;101839.72;2071065;28;45705;-77
2022/01/20 01:41:28;;;;;;;17.98;1.42;;;;;;;2.71;90.60;101831.84;2080864;28;20034;-75
2022/01/20 01:42:37;;;;;;;14.98;1.08;;;;;;;2.68;90.66;101841.47;2080849;28;21037;-76
2022/01/20 01:43:42;;;;;;;18.35;1.20;;;;;;;2.67;90.58;101839.72;2080243;28;20038;-76
2022/01/20 01:44:46;;;;;;;10.43;0.85;;;;;;;2.68;90.95;101849.41;2079660;28;33497;-76
2022/01/20 01:45:50;;;;;;;14.35;0.77;;;;;;;2.68;90.77;101857.34;2072862;28;20141;-75
2022/01/20 01:46:57;;;;;;;10.80;0.50;;;;;;;2.66;91.39;101861.72;2072380;28;20152;-75
2022/01/20 01:47:59;;;;;;;9.80;0.70;;;;;;;2.66;91.09;101864.34;2072144;28;20046;-75
2022/01/20 01:49:01;;;;;;;12.85;0.52;;;;;;;2.67;91.59;101860.88;2072355;28;20173;-75
2022/01/20 01:50:05;;;;;;;10.73;0.80;;;;;;;2.69;91.53;101858.22;2071927;28;20112;-75
2022/01/20 01:51:08;;;;;;;14.80;0.45;;;;;;;2.66;91.73;101855.53;2072396;28;20904;-75
2022/01/20 01:52:10;;;;;;;11.90;0.70;;;;;;;2.66;92.02;101848.50;2072336;28;20046;-75
2022/01/20 01:53:16;;;;;;;14.32;0.98;;;;;;;2.66;91.54;101842.31;2080286;28;20136;-75
2022/01/20 01:54:18;;;;;;;9.07;0.52;;;;;;;2.67;91.81;101854.66;2087222;28;33970;-75
2022/01/20 01:55:21;;;;;;;9.23;0.30;;;;;;;2.62;91.71;101846.63;2088351;28;20049;-75
2022/01/20 01:56:23;;;;;;;6.10;0.43;;;;;;;2.60;91.91;101853.63;2071528;28;20046;-75
2022/01/20 01:57:27;;;;;;;5.93;0.28;;;;;;;2.59;91.97;101851.84;2064225;28;27195;-75
2022/01/20 01:58:29;;;;;;;11.07;0.50;;;;;;;2.57;92.06;101856.19;2071320;28;36238;-75
2022/01/20 01:59:44;;;;;;;8.23;0.38;;;;;;;2.53;92.35;101846.41;2073926;28;20096;-75
2022/01/20 02:00:56;;;;;;;8.05;0.47;;;;;;;2.51;92.08;101858.66;2072717;28;20093;-76
2022/01/20 02:02:00;;;;;;;11.45;0.50;;;;;;;2.46;92.16;101849.75;2073448;28;20038;-76
2022/01/20 02:03:04;;;;;;;8.88;0.60;;;;;;;2.45;92.25;101842.69;2080352;28;20124;-75
2022/01/20 02:04:20;;;;;;;8.10;0.50;;;;;;;2.42;92.54;101842.59;2080019;28;20179;-75
2022/01/20 02:05:37;;;;;;;5.95;0.52;;;;;;;2.38;92.39;101846.91;2074189;28;20045;-75
2022/01/20 02:08:30;;;;;;;10.10;0.70;;;;;;;2.28;92.87;101848.44;2055260;28;20247;-75
2022/01/20 02:18:48;;;;;;;8.02;0.50;;;;;;;2.36;93.98;101888.25;2074300;28;20153;-75
2022/01/20 02:20:16;;;;;;;8.05;0.30;;;;;;;2.44;93.39;101888.44;2078544;28;20050;-76
2022/01/20 02:21:31;;;;;;;6.28;0.30;;;;;;;2.46;92.42;101889.41;2080099;28;20196;-75
2022/01/20 02:22:35;;;;;;;7.47;0.22;;;;;;;2.47;92.28;101902.63;2078330;28;20073;-76
2022/01/20 02:24:00;;;;;;;3.40;0.20;;;;;;;2.44;91.83;101915.78;2080208;28;20038;-75
2022/01/20 02:25:02;;;;;;;2.67;0.20;;;;;;;2.34;92.54;101912.88;2081239;28;20035;-75
2022/01/20 02:26:08;;;;;;;3.40;0.10;;;;;;;2.33;92.13;101908.44;2079991;28;20042;-76
2022/01/20 02:27:12;;;;;;;3.92;0.10;;;;;;;2.20;92.18;101905.44;2079464;28;41882;-75
2022/01/20 02:28:15;;;;;;;3.30;0.15;;;;;;;2.09;92.14;101907.81;2080241;28;20054;-75
2022/01/20 02:29:18;;;;;;;2.58;0.10;;;;;;;2.07;92.94;101909.50;2071978;28;20042;-75
2022/01/20 02:30:24;;;;;;;2.60;0.10;;;;;;;2.03;92.44;101901.47;2072318;28;20046;-75
2022/01/20 02:31:26;;;;;;;3.60;0.00;;;;;;;1.96;93.20;101887.19;2064409;28;20055;-76
2022/01/20 02:32:30;;;;;;;1.83;0.08;;;;;;;1.86;92.27;101883.38;2064679;28;20135;-75
2022/01/20 02:33:33;;;;;;;3.53;0.00;;;;;;;1.84;93.09;101887.75;2079423;28;39760;-75
2022/01/20 02:34:35;;;;;;;1.25;0.00;;;;;;;1.78;92.68;101887.59;2088477;28;20882;-75
2022/01/20 02:35:52;;;;;;;2.28;0.10;;;;;;;1.75;92.82;101897.16;2079907;28;20101;-75
2022/01/20 02:37:06;;;;;;;1.17;0.10;;;;;;;1.72;93.16;101892.66;2075075;28;20049;-75
2022/01/20 02:38:27;;;;;;;2.65;0.10;;;;;;;1.75;92.82;101881.31;2073468;28;21031;-75
2022/01/20 02:45:50;;;;;;;4.68;0.20;;;;;;;1.67;93.21;101889.91;2080411;28;24193;-75
2022/01/20 02:46:54;;;;;;;1.88;0.10;;;;;;;1.63;92.75;101903.84;2087906;28;20679;-75
2022/01/20 02:47:56;;;;;;;1.90;0.20;;;;;;;1.65;92.99;101903.91;2079642;28;29140;-75
2022/01/20 02:48:58;;;;;;;3.47;0.20;;;;;;;1.66;93.18;101900.41;2078981;28;45412;-75
2022/01/20 02:50:00;;;;;;;6.95;0.20;;;;;;;1.61;92.80;101896.75;2088124;28;21000;-75
2022/01/20 02:51:06;;;;;;;3.20;0.20;;;;;;;1.62;92.96;101901.19;2079911;28;20152;-75
2022/01/20 02:52:09;;;;;;;2.60;0.20;;;;;;;1.62;93.36;101899.44;2071838;28;20066;-75
2022/01/20 02:53:11;;;;;;;4.82;0.32;;;;;;;1.59;92.58;101909.91;2071700;28;22564;-75
2022/01/20 02:54:12;;;;;;;5.68;0.40;;;;;;;1.57;92.63;101897.53;2079025;28;44051;-75
2022/01/20 02:55:15;;;;;;;4.88;0.20;;;;;;;1.51;93.29;101901.75;2079400;28;20062;-75
2022/01/20 02:56:16;;;;;;;4.80;0.20;;;;;;;1.51;93.03;101903.53;2071605;28;39704;-76
2022/01/20 02:57:18;;;;;;;4.32;0.10;;;;;;;1.47;93.19;101902.53;2079882;28;20235;-76
2022/01/20 02:58:20;;;;;;;5.82;0.20;;;;;;;1.47;93.54;101904.25;2088307;28;20123;-76
2022/01/20 02:59:22;;;;;;;5.38;0.20;;;;;;;1.47;93.27;101902.53;2071320;28;31538;-75
2022/01/20 03:00:24;;;;;;;6.68;0.30;;;;;;;1.41;93.26;101902.31;2063396;28;21063;-76
2022/01/20 03:01:26;;;;;;;6.00;0.20;;;;;;;1.37;93.16;101902.22;2071842;28;20054;-76
2022/01/20 03:02:28;;;;;;;6.38;0.20;;;;;;;1.36;93.44;101905.69;2079883;28;20859;-76
2022/01/20 03:03:30;;;;;;;3.42;0.20;;;;;;;1.36;93.84;101901.28;2086850;28;43481;-76
2022/01/20 03:04:32;;;;;;;7.57;0.30;;;;;;;1.37;93.64;101905.72;2079040;28;44020;-76
2022/01/20 03:05:36;;;;;;;6.97;0.88;;;;;;;1.36;93.61;101901.28;2072007;28;20165;-76
2022/01/20 03:06:44;;;;;;;6.53;0.20;;;;;;;1.31;93.69;101897.63;2080415;28;20049;-76
2022/01/20 03:07:46;;;;;;;7.22;0.30;;;;;;;1.27;93.48;101895.75;2078940;28;45318;-76
2022/01/20 03:08:47;;;;;;;7.32;0.40;;;;;;;1.25;94.04;101898.31;2079201;28;37568;-76
2022/01/20 03:09:49;;;;;;;6.95;0.20;;;;;;;1.23;93.97;101893.88;2079307;28;45339;-76
2022/01/20 03:10:51;;;;;;;5.65;0.38;;;;;;;1.22;93.66;101897.34;2071174;28;38729;-76
2022/01/20 03:11:53;;;;;;;5.53;0.30;;;;;;;1.20;94.15;101889.38;2063573;28;20277;-75
2022/01/20 03:12:56;;;;;;;8.88;0.35;;;;;;;1.25;93.80;101881.63;2079371;28;37663;-76
2022/01/20 03:13:57;;;;;;;10.23;0.30;;;;;;;1.24;93.74;101893.00;2087144;28;43400;-76
2022/01/20 03:15:02;;;;;;;11.70;0.57;;;;;;;1.19;93.28;101899.91;2079449;28;20034;-76
2022/01/20 03:16:05;;;;;;;5.63;0.30;;;;;;;1.17;94.41;101898.94;2080345;28;20892;-76
2022/01/20 03:17:07;;;;;;;10.90;0.52;;;;;;;1.15;93.59;101906.81;2079289;28;40204;-75
2022/01/20 03:18:11;;;;;;;8.30;0.47;;;;;;;1.14;93.83;101905.03;2080266;28;20046;-76
2022/01/20 03:19:13;;;;;;;6.28;0.57;;;;;;;1.10;93.95;101909.31;2086914;28;45779;-73
2022/01/20 03:20:15;;;;;;;10.70;0.52;;;;;;;1.08;93.92;101915.38;2079837;28;20151;-73
2022/01/20 03:21:16;;;;;;;10.38;0.80;;;;;;;1.08;93.72;101923.31;2070651;28;44132;-76
2022/01/20 03:22:18;;;;;;;10.73;0.65;;;;;;;1.06;93.58;101909.16;2078746;28;44373;-73
2022/01/20 03:23:20;;;;;;;10.38;0.50;;;;;;;1.08;93.84;101905.72;2078813;28;44696;-74
2022/01/20 03:24:22;;;;;;;8.25;0.47;;;;;;;1.03;93.78;101893.25;2071572;28;20116;-74
2022/01/20 03:25:23;;;;;;;11.65;0.55;;;;;;;0.99;93.31;101884.34;2071496;28;20135;-74
2022/01/20 03:26:25;;;;;;;11.27;0.60;;;;;;;1.00;93.68;101893.16;2079025;28;39811;-75
2022/01/20 03:27:27;;;;;;;11.10;1.00;;;;;;;0.99;93.90;101899.25;2079899;28;20084;-74
2022/01/20 03:28:29;;;;;;;10.43;0.93;;;;;;;0.94;93.72;101894.72;2070988;28;20038;-74
2022/01/20 03:29:30;;;;;;;9.52;0.50;;;;;;;0.90;93.87;101897.25;2071401;28;20039;-74
2022/01/20 03:30:34;;;;;;;10.95;0.68;;;;;;;0.88;93.63;101901.53;2079697;28;20180;-73
2022/01/20 03:31:37;;;;;;;10.57;0.80;;;;;;;0.85;94.18;101901.47;2079386;28;21035;-73
2022/01/20 03:32:40;;;;;;;11.68;0.68;;;;;;;0.81;94.16;101910.09;2072013;28;20904;-76
2022/01/20 03:33:42;;;;;;;12.25;0.75;;;;;;;0.79;93.99;101914.44;2072135;28;20137;-74
2022/01/20 03:34:44;;;;;;;13.50;1.98;;;;;;;0.74;94.43;101923.09;2071180;28;20148;-74
2022/01/20 03:35:50;;;;;;;17.92;3.65;;;;;;;0.73;94.43;101918.66;2080110;28;20046;-74
2022/01/20 03:37:17;;;;;;;19.45;4.40;;;;;;;0.72;94.77;101916.00;2084246;28;20088;-74
2022/01/20 03:38:28;;;;;;;17.70;4.47;;;;;;;0.71;95.12;101930.00;2079619;28;20230;-76
2022/01/20 03:39:32;;;;;;;17.95;3.72;;;;;;;0.71;95.43;101930.88;2071991;28;20045;-75
2022/01/20 03:40:34;;;;;;;15.60;2.10;;;;;;;0.72;95.08;101930.06;2071252;28;20077;-75
2022/01/20 03:41:36;;;;;;;15.45;2.08;;;;;;;0.73;94.96;101926.56;2072269;28;20090;-75
2022/01/20 03:42:50;;;;;;;20.27;2.05;;;;;;;0.75;95.38;101932.81;2072720;28;20818;-75
2022/01/20 03:43:51;;;;;;;18.98;2.85;;;;;;;0.76;95.00;101931.94;2071917;28;20050;-73
2022/01/20 03:44:53;;;;;;;12.80;1.40;;;;;;;0.77;94.67;101930.19;2071586;28;20091;-73
2022/01/20 03:45:57;;;;;;;17.42;2.35;;;;;;;0.80;95.19;101935.56;2071783;28;20145;-76
2022/01/20 03:47:02;;;;;;;17.52;1.75;;;;;;;0.82;94.45;101930.34;2071386;28;20917;-76
2022/01/20 03:48:10;;;;;;;17.13;2.22;;;;;;;0.83;95.15;101930.41;2079697;28;20157;-76
2022/01/20 03:49:34;;;;;;;20.45;2.47;;;;;;;0.82;94.63;101928.59;2087581;28;20088;-76
2022/01/20 03:52:03;;;;;;;19.02;1.17;;;;;;;0.85;94.39;101923.44;2084040;28;20034;-76
2022/01/20 03:53:06;;;;;;;15.25;1.58;;;;;;;0.86;94.45;101924.34;2081168;28;20172;-76
2022/01/20 03:54:09;;;;;;;12.85;1.33;;;;;;;0.92;93.83;101927.19;2072576;28;20172;-76
2022/01/20 03:55:34;;;;;;;16.65;0.95;;;;;;;0.85;93.49;101922.56;2080763;28;20078;-76
2022/01/20 03:56:42;;;;;;;17.50;1.65;;;;;;;0.85;93.74;101933.09;2089271;28;20057;-76
2022/01/20 03:58:02;;;;;;;21.88;1.38;;;;;;;0.86;93.20;101932.25;2087048;28;20069;-76
2022/01/20 03:59:06;;;;;;;18.38;1.25;;;;;;;0.88;93.26;101935.81;2081198;28;20184;-76
2022/01/20 04:00:09;;;;;;;18.60;1.63;;;;;;;0.85;92.19;101938.38;2081055;28;20042;-76
2022/01/20 04:01:24;;;;;;;16.88;1.08;;;;;;;0.83;91.87;101946.22;2080625;28;20073;-76
2022/01/20 04:03:02;;;;;;;15.13;1.27;;;;;;;0.86;91.11;101946.34;2053327;28;21001;-76
2022/01/20 04:04:13;;;;;;;14.30;1.40;;;;;;;0.91;91.35;101934.19;2048106;28;20162;-76
2022/01/20 04:05:27;;;;;;;20.15;1.55;;;;;;;0.91;89.83;101930.66;2054685;28;20042;-76
2022/01/20 04:06:47;;;;;;;19.10;2.77;;;;;;;0.91;89.43;101950.00;2080163;28;20139;-76
2022/01/20 04:07:49;;;;;;;18.00;1.33;;;;;;;0.94;90.27;101949.22;2087454;28;44360;-76
2022/01/20 04:08:51;;;;;;;23.23;1.75;;;;;;;0.97;88.31;101953.69;2081099;28;43385;-73
2022/01/20 04:09:53;;;;;;;18.50;1.38;;;;;;;0.97;87.99;101946.69;2081668;28;20121;-73
2022/01/20 04:10:59;;;;;;;23.60;1.88;;;;;;;0.98;87.83;101948.47;2080874;28;20041;-76
2022/01/20 04:12:01;;;;;;;18.73;1.65;;;;;;;0.97;87.36;101943.13;2080269;28;44050;-76
2022/01/20 04:13:03;;;;;;;16.90;1.63;;;;;;;1.11;86.24;101937.47;2080122;28;34558;-76
2022/01/20 04:14:05;;;;;;;17.58;1.67;;;;;;;1.20;85.00;101949.16;2071651;28;43297;-76
2022/01/20 04:15:09;;;;;;;18.33;1.58;;;;;;;1.20;84.80;101946.50;2080437;28;44184;-76
2022/01/20 04:16:19;;;;;;;15.75;1.35;;;;;;;1.18;83.94;101959.66;2080853;28;20136;-76
2022/01/20 04:17:26;;;;;;;16.27;1.30;;;;;;;1.21;83.18;101959.75;2082439;28;20894;-75
2022/01/20 04:18:29;;;;;;;17.77;1.75;;;;;;;1.23;84.78;101968.63;2087418;28;44456;-74
2022/01/20 04:19:32;;;;;;;13.55;1.60;;;;;;;1.29;83.74;101954.72;2081093;28;20178;-75
2022/01/20 04:20:36;;;;;;;19.35;1.42;;;;;;;1.24;82.60;101958.94;2072301;28;20070;-76
2022/01/20 04:21:39;;;;;;;13.52;1.42;;;;;;;1.29;83.90;101963.53;2072247;28;44926;-74
2022/01/20 04:22:41;;;;;;;16.08;1.45;;;;;;;1.26;81.92;101960.81;2073488;28;20101;-75
2022/01/20 04:23:43;;;;;;;19.85;2.65;;;;;;;1.28;81.68;101972.28;2080059;28;45702;-76
2022/01/20 04:24:45;;;;;;;14.90;1.73;;;;;;;1.32;81.75;101978.56;2080499;28;26719;-75
2022/01/20 04:25:49;;;;;;;13.05;1.85;;;;;;;1.36;82.58;101975.16;2081124;28;20342;-75
2022/01/20 04:26:51;;;;;;;18.60;2.30;;;;;;;1.37;80.99;101984.00;2088828;28;28866;-75
2022/01/20 04:27:56;;;;;;;22.40;3.65;;;;;;;1.37;80.19;101981.38;2072744;28;20172;-75
2022/01/20 04:28:58;;;;;;;21.67;2.30;;;;;;;1.42;81.73;101985.94;2065415;28;20051;-75
2022/01/20 04:30:04;;;;;;;13.13;1.38;;;;;;;1.43;81.14;101995.63;2072858;28;20038;-75
2022/01/20 04:31:07;;;;;;;13.88;1.35;;;;;;;1.43;80.22;102000.91;2073000;28;20876;-75
2022/01/20 04:32:09;;;;;;;13.98;1.20;;;;;;;1.45;82.94;101996.56;2072172;28;32041;-75
2022/01/20 04:33:10;;;;;;;20.40;1.70;;;;;;;1.34;81.98;101998.84;2080946;28;20042;-75
2022/01/20 04:34:12;;;;;;;17.20;1.50;;;;;;;1.32;82.07;101997.91;2080790;28;20026;-75
2022/01/20 04:35:18;;;;;;;16.73;1.42;;;;;;;1.33;83.27;101985.66;2079667;28;44895;-75
2022/01/20 04:36:30;;;;;;;10.93;1.10;;;;;;;1.25;82.98;101989.78;2080959;28;20049;-76
2022/01/20 04:37:33;;;;;;;18.40;1.45;;;;;;;1.23;83.42;101989.72;2082191;28;20038;-76
2022/01/20 04:38:37;;;;;;;16.35;1.60;;;;;;;1.19;83.48;101981.66;2080278;28;20213;-76
2022/01/20 04:39:45;;;;;;;19.83;1.98;;;;;;;1.19;84.48;101989.59;2072486;28;23894;-76
2022/01/20 04:40:47;;;;;;;7.93;1.40;;;;;;;1.20;85.33;102000.16;2080054;28;42971;-76
2022/01/20 04:41:51;;;;;;;16.92;2.00;;;;;;;1.17;85.22;101984.25;2088073;28;42969;-75
2022/01/20 04:42:55;;;;;;;19.30;1.70;;;;;;;1.17;85.74;101988.63;2080422;28;20050;-75
2022/01/20 04:44:01;;;;;;;15.93;1.65;;;;;;;1.12;84.29;101999.91;2080161;28;43044;-76
2022/01/20 04:45:08;;;;;;;15.90;1.63;;;;;;;1.17;86.25;101988.63;2080417;28;20092;-76
2022/01/20 04:46:22;;;;;;;12.45;1.13;;;;;;;1.09;84.88;101994.53;2088375;28;30714;-76
2022/01/20 04:47:53;;;;;;;14.15;1.80;;;;;;;1.04;85.36;102004.06;2072175;28;20092;-76
2022/01/20 04:57:01;;;;;;;16.52;1.33;;;;;;;1.03;85.84;101996.97;2075711;28;20139;-76
2022/01/20 04:57:17;;;;;;;13.15;1.30;;;;;;;1.05;86.32;102015.50;2079971;28;40056;-76
2022/01/20 04:58:21;;;;;;;12.75;1.70;;;;;;;1.06;87.46;102006.72;2088819;28;20041;-75
2022/01/20 04:59:24;;;;;;;14.80;1.33;;;;;;;1.08;84.56;102005.94;2080424;28;20095;-75
2022/01/20 05:00:26;;;;;;;17.45;1.67;;;;;;;1.06;85.21;102010.28;2072079;28;40861;-76
2022/01/20 05:01:47;;;;;;;15.55;1.13;;;;;;;1.14;84.68;102005.25;2081178;28;20050;-76
2022/01/20 05:02:58;;;;;;;17.98;1.73;;;;;;;1.10;85.18;102006.88;2088708;28;20195;-75
2022/01/20 05:04:06;;;;;;;15.60;1.50;;;;;;;1.06;85.68;102012.91;2081453;28;20135;-75
2022/01/20 05:05:28;;;;;;;7.43;0.88;;;;;;;1.03;84.90;102012.81;2080791;28;20918;-76
2022/01/20 05:06:41;;;;;;;9.75;0.98;;;;;;;1.05;86.19;102020.78;2088706;28;20088;-75
2022/01/20 05:07:43;;;;;;;16.05;1.42;;;;;;;1.06;86.16;102017.28;2080188;28;20959;-76
2022/01/20 05:08:51;;;;;;;15.77;1.23;;;;;;;1.04;85.07;102024.25;2072663;28;20217;-76
2022/01/20 05:09:55;;;;;;;17.10;1.20;;;;;;;1.05;84.51;102026.94;2088650;28;20045;-75
2022/01/20 05:11:01;;;;;;;15.10;1.10;;;;;;;1.04;84.55;102027.78;2080613;28;20946;-75
2022/01/20 05:12:11;;;;;;;16.42;1.20;;;;;;;1.07;85.29;102029.63;2070753;28;20833;-75
2022/01/20 05:13:23;;;;;;;13.00;1.10;;;;;;;1.04;84.04;102025.16;2081550;28;20054;-75
2022/01/20 05:14:27;;;;;;;14.73;1.30;;;;;;;1.04;85.85;102034.78;2079940;28;20131;-75
2022/01/20 05:15:30;;;;;;;10.10;0.98;;;;;;;0.97;84.97;102041.63;2072659;28;20155;-75
2022/01/20 05:16:31;;;;;;;15.02;1.20;;;;;;;0.93;84.85;102037.06;2080595;28;20038;-75
2022/01/20 05:17:35;;;;;;;18.83;1.35;;;;;;;0.93;84.81;102026.50;2088490;28;20045;-75
2022/01/20 05:18:37;;;;;;;14.93;1.48;;;;;;;0.93;84.78;102026.50;2080453;28;29770;-75
2022/01/20 05:19:40;;;;;;;13.40;0.88;;;;;;;0.90;84.16;102029.06;2071998;28;20928;-75
2022/01/20 05:20:45;;;;;;;14.43;1.48;;;;;;;0.87;84.50;102036.88;2080455;28;20901;-75
2022/01/20 05:21:47;;;;;;;17.73;1.25;;;;;;;0.89;85.32;102025.50;2072338;28;23488;-75
2022/01/20 05:22:57;;;;;;;13.95;1.10;;;;;;;0.98;84.81;102042.50;2065195;28;20918;-75
2022/01/20 05:24:04;;;;;;;9.60;0.98;;;;;;;0.98;84.66;102039.88;2074443;28;20112;-75
2022/01/20 05:25:07;;;;;;;11.00;0.77;;;;;;;0.95;84.54;102040.63;2081103;28;20076;-75
2022/01/20 05:26:10;;;;;;;9.82;0.70;;;;;;;0.97;85.75;102038.06;2080556;28;20160;-75
2022/01/20 05:27:14;;;;;;;14.95;1.27;;;;;;;0.98;84.19;102030.22;2072439;28;20038;-75
2022/01/20 05:28:16;;;;;;;11.15;1.13;;;;;;;0.92;84.55;102036.19;2072923;28;20989;-75
2022/01/20 05:29:19;;;;;;;19.05;1.08;;;;;;;0.88;85.30;102041.28;2072439;28;20049;-75
2022/01/20 05:30:21;;;;;;;12.50;1.05;;;;;;;0.87;85.63;102047.41;2081076;28;20123;-75
2022/01/20 05:31:47;;;;;;;13.80;1.40;;;;;;;0.82;86.13;102048.97;2081069;28;20754;-75
2022/01/20 05:32:48;;;;;;;12.00;1.02;;;;;;;0.82;86.21;102064.81;2088487;28;20061;-74
2022/01/20 05:33:50;;;;;;;9.93;0.82;;;;;;;0.81;86.42;102078.81;2080457;28;20089;-73
2022/01/20 05:34:55;;;;;;;10.40;0.80;;;;;;;0.80;87.04;102077.03;2080092;28;34107;-74
2022/01/20 05:35:58;;;;;;;10.68;1.27;;;;;;;0.83;86.57;102088.59;2088598;28;20041;-75
2022/01/20 05:37:02;;;;;;;11.82;0.90;;;;;;;0.85;86.63;102099.19;2079999;28;20147;-75
2022/01/20 05:38:04;;;;;;;11.40;0.63;;;;;;;0.88;85.88;102096.63;2072301;28;20100;-75
2022/01/20 05:39:06;;;;;;;7.88;0.80;;;;;;;0.88;86.60;102108.09;2080544;28;20157;-74
2022/01/20 05:40:09;;;;;;;10.48;0.85;;;;;;;0.81;87.46;102106.09;2088950;28;20044;-75
2022/01/20 05:41:12;;;;;;;8.25;0.75;;;;;;;0.67;88.43;102110.84;2088887;28;20916;-75
2022/01/20 05:42:13;;;;;;;10.13;0.60;;;;;;;0.44;89.24;102082.78;2087597;28;43812;-75
2022/01/20 05:43:25;;;;;;;8.13;0.50;;;;;;;0.46;90.33;102089.00;2073223;28;20050;-75
2022/01/20 05:44:30;;;;;;;7.63;0.57;;;;;;;0.47;90.14;102075.00;2072252;28;20042;-75
2022/01/20 05:45:32;;;;;;;5.90;0.50;;;;;;;0.42;90.79;102074.81;2065104;28;20097;-75
2022/01/20 05:46:44;;;;;;;6.10;0.30;;;;;;;0.42;91.69;102082.72;2072210;28;20132;-75
2022/01/20 05:48:17;;;;;;;9.90;0.85;;;;;;;0.28;90.81;102079.56;2074880;28;20049;-75
2022/01/20 05:49:37;;;;;;;6.95;0.30;;;;;;;0.25;90.69;102084.72;2080879;28;20057;-74
2022/01/20 05:50:40;;;;;;;5.57;0.50;;;;;;;0.22;91.20;102095.13;2079837;28;20168;-75
2022/01/20 05:51:43;;;;;;;7.15;0.60;;;;;;;0.19;91.22;102095.00;2072026;28;21035;-75
2022/01/20 05:52:47;;;;;;;5.80;0.60;;;;;;;0.18;91.11;102094.13;2071890;28;20038;-75
2022/01/20 05:53:49;;;;;;;5.18;0.28;;;;;;;0.17;91.46;102087.03;2071758;28;33038;-75
2022/01/20 05:54:51;;;;;;;5.53;0.60;;;;;;;0.13;91.24;102079.88;2072055;28;20182;-75
2022/01/20 05:55:53;;;;;;;8.00;0.45;;;;;;;0.11;91.05;102078.94;2080021;28;20909;-75
2022/01/20 05:56:55;;;;;;;7.53;0.30;;;;;;;0.12;90.89;102082.44;2087794;28;34965;-75
2022/01/20 05:57:56;;;;;;;9.65;0.57;;;;;;;0.12;91.42;102085.09;2080060;28;20112;-75
2022/01/20 05:59:02;;;;;;;10.45;0.60;;;;;;;0.13;91.42;102085.16;2080382;28;20796;-76
2022/01/20 06:00:08;;;;;;;6.40;0.77;;;;;;;0.17;91.45;102084.41;2088117;28;20805;-75
2022/01/20 06:01:16;;;;;;;11.07;0.60;;;;;;;0.16;91.84;102076.44;2080453;28;20046;-75
2022/01/20 06:02:34;;;;;;;9.90;0.77;;;;;;;0.15;91.27;102079.94;2073423;28;20046;-75
2022/01/20 06:03:37;;;;;;;8.68;0.65;;;;;;;0.15;91.29;102077.31;2082686;28;20867;-76
2022/01/20 06:04:44;;;;;;;13.00;0.50;;;;;;;0.16;91.10;102076.44;2079952;28;20160;-75
2022/01/20 06:05:45;;;;;;;11.23;1.02;;;;;;;0.17;91.41;102067.72;2080580;28;20046;-75
2022/01/20 06:06:48;;;;;;;16.45;0.90;;;;;;;0.19;91.58;102073.94;2080140;28;20152;-75